Time;durP1;ratioP1;P1;durP2;ratioP2;P2;SDS_P1;SDS_P2;PMS_P1;PMS_P2;Temp;Humidity;BMP_temperature;BMP_pressure;BME280_temperature;BME280_humidity;BME280_pressure;Samples;Min_cycle;Max_cycle;Signal;HPM_P1;HPM_P2
2022/05/03 00:00:05;;;;;;;2.77;2.57;;;8.80;99.90;;;;;;5054679;28;20545;-74
2022/05/03 00:03:07;;;;;;;2.30;2.10;;;8.80;99.90;;;;;;5054029;28;20674;-74
2022/05/03 00:06:02;;;;;;;3.03;2.73;;;8.70;99.90;;;;;;5054720;28;20481;-74
2022/05/03 00:08:54;;;;;;;3.10;2.57;;;8.60;99.90;;;;;;5054907;28;20473;-74
2022/05/03 00:11:54;;;;;;;3.23;2.67;;;8.60;99.90;;;;;;5051650;28;20869;-74
2022/05/03 00:14:45;;;;;;;3.50;3.03;;;8.60;99.90;;;;;;5054892;28;20489;-74
2022/05/03 00:17:35;;;;;;;3.60;2.43;;;8.50;99.90;;;;;;5057383;28;20552;-74
2022/05/03 00:20:25;;;;;;;2.93;2.73;;;8.50;99.90;;;;;;5056164;28;20516;-73
2022/05/03 00:23:13;;;;;;;3.30;3.10;;;8.40;99.90;;;;;;5054471;28;20516;-74
2022/05/03 00:26:01;;;;;;;3.50;2.50;;;8.40;99.90;;;;;;5056073;28;20602;-75
2022/05/03 00:28:51;;;;;;;3.23;2.90;;;8.40;99.90;;;;;;5056673;28;20653;-74
2022/05/03 00:31:39;;;;;;;3.50;3.17;;;8.40;99.90;;;;;;5056244;28;20994;-73
2022/05/03 00:34:28;;;;;;;3.00;2.80;;;8.30;99.90;;;;;;5053753;28;20481;-74
2022/05/03 00:37:18;;;;;;;2.93;2.73;;;8.30;99.90;;;;;;5053744;28;20582;-73
2022/05/03 00:40:10;;;;;;;3.97;2.93;;;8.30;99.90;;;;;;5050469;28;20557;-74
2022/05/03 00:43:11;;;;;;;3.60;3.00;;;8.20;99.90;;;;;;5055598;28;20575;-75
2022/05/03 00:46:03;;;;;;;3.20;2.40;;;8.10;99.90;;;;;;5053974;28;20557;-74
2022/05/03 00:49:16;;;;;;;5.27;2.90;;;8.20;99.90;;;;;;5052345;28;20493;-73
2022/05/03 00:52:08;;;;;;;3.70;2.50;;;8.10;99.90;;;;;;5055571;28;20557;-75
2022/05/03 00:55:22;;;;;;;3.00;2.70;;;8.10;99.90;;;;;;5054954;28;20565;-75
2022/05/03 00:58:25;;;;;;;2.63;2.43;;;8.10;99.90;;;;;;5055557;28;20675;-75
2022/05/03 01:01:24;;;;;;;3.37;2.87;;;8.00;99.90;;;;;;5053329;28;20481;-76
2022/05/03 01:04:20;;;;;;;3.90;2.93;;;8.00;99.90;;;;;;5056635;28;20482;-75
2022/05/03 01:07:22;;;;;;;2.97;2.77;;;8.00;99.90;;;;;;5056758;28;20486;-74
2022/05/03 01:10:18;;;;;;;3.20;2.90;;;7.90;99.90;;;;;;5054166;28;20481;-75
2022/05/03 01:13:13;;;;;;;3.27;2.97;;;7.90;99.90;;;;;;5055304;28;20481;-74
2022/05/03 01:16:04;;;;;;;2.70;2.27;;;7.90;99.90;;;;;;5059946;28;20457;-74
2022/05/03 01:18:57;;;;;;;4.03;3.63;;;7.80;99.90;;;;;;5059387;28;20504;-75
2022/05/03 01:22:01;;;;;;;4.87;3.50;;;7.70;99.90;;;;;;5060259;28;20522;-76
2022/05/03 01:25:21;;;;;;;3.80;3.10;;;7.70;99.90;;;;;;5055771;28;20484;-76
2022/05/03 01:28:20;;;;;;;3.37;2.83;;;7.60;99.90;;;;;;5056747;28;20525;-76
2022/05/03 01:31:11;;;;;;;3.37;3.07;;;7.60;99.90;;;;;;5055312;28;20449;-75
2022/05/03 01:34:03;;;;;;;3.10;2.80;;;7.60;99.90;;;;;;5062196;28;20856;-75
2022/05/03 01:37:00;;;;;;;3.30;2.80;;;7.50;99.90;;;;;;5060960;28;20458;-73
2022/05/03 01:40:06;;;;;;;3.50;3.20;;;7.50;99.90;;;;;;5059131;28;20477;-76
2022/05/03 01:43:20;;;;;;;3.73;3.43;;;7.50;99.90;;;;;;5055875;28;20618;-74
2022/05/03 01:46:18;;;;;;;4.47;3.10;;;7.50;99.90;;;;;;5060099;28;21000;-73
2022/05/03 01:52:43;;;;;;;3.33;3.03;;;7.40;99.90;;;;;;5057038;28;20895;-74
2022/05/03 01:56:09;;;;;;;3.53;3.20;;;7.40;99.90;;;;;;5054811;28;21009;-75
2022/05/03 01:59:05;;;;;;;3.40;3.10;;;7.40;99.90;;;;;;5041874;28;20506;-73
2022/05/03 02:01:59;;;;;;;3.90;3.20;;;7.40;99.90;;;;;;5060922;28;21062;-73
2022/05/03 02:05:04;;;;;;;2.70;2.50;;;7.30;99.90;;;;;;5058093;28;20548;-74
2022/05/03 02:07:55;;;;;;;4.73;3.00;;;7.30;99.90;;;;;;5059692;28;20530;-74
2022/05/03 02:10:58;;;;;;;3.03;2.83;;;7.20;99.90;;;;;;5059204;28;20461;-76
2022/05/03 02:17:19;;;;;;;3.50;3.20;;;7.20;99.90;;;;;;5060782;28;20477;-74
2022/05/03 02:20:17;;;;;;;3.00;2.70;;;7.20;99.90;;;;;;5059934;28;20465;-73
2022/05/03 02:23:15;;;;;;;3.50;3.20;;;7.10;99.90;;;;;;5058714;28;20501;-73
2022/05/03 02:26:26;;;;;;;3.70;3.40;;;7.10;99.90;;;;;;5058452;28;20486;-74
2022/05/03 02:29:16;;;;;;;4.03;3.73;;;7.10;99.90;;;;;;5056216;28;20484;-73
2022/05/03 02:32:06;;;;;;;4.70;3.10;;;7.10;99.90;;;;;;5058639;28;20501;-73
2022/05/03 02:35:03;;;;;;;3.50;3.20;;;7.10;99.90;;;;;;5059091;28;20484;-73
2022/05/03 02:37:58;;;;;;;4.57;3.70;;;7.10;99.90;;;;;;5058817;28;20678;-73
2022/05/03 02:40:50;;;;;;;4.67;3.50;;;7.00;99.90;;;;;;5058276;28;20562;-74
2022/05/03 02:43:39;;;;;;;4.83;3.77;;;7.00;99.90;;;;;;5058282;28;20482;-74
2022/05/03 02:46:52;;;;;;;4.30;3.90;;;7.00;99.90;;;;;;5056700;28;20584;-74
2022/05/03 02:49:51;;;;;;;4.20;3.70;;;7.00;99.90;;;;;;5059062;28;20996;-75
2022/05/03 02:52:57;;;;;;;4.53;3.97;;;6.90;99.90;;;;;;5056381;28;20438;-73
2022/05/03 02:55:51;;;;;;;4.50;3.83;;;6.90;99.90;;;;;;5059198;28;20482;-73
2022/05/03 02:58:48;;;;;;;4.50;4.10;;;6.90;99.90;;;;;;5056433;28;20982;-75
2022/05/03 03:01:47;;;;;;;3.80;3.50;;;6.90;99.90;;;;;;5056433;28;20587;-73
2022/05/03 03:04:41;;;;;;;4.30;3.90;;;6.80;99.90;;;;;;5056072;28;20561;-75
2022/05/03 03:07:39;;;;;;;4.10;3.80;;;6.80;99.90;;;;;;5058810;28;20458;-74
2022/05/03 03:10:33;;;;;;;4.70;3.73;;;6.80;99.90;;;;;;5056855;28;20461;-74
2022/05/03 03:13:33;;;;;;;3.97;3.63;;;6.80;99.90;;;;;;5057176;28;20601;-74
2022/05/03 03:16:29;;;;;;;4.03;3.60;;;6.70;99.90;;;;;;5060130;28;20852;-74
2022/05/03 03:19:34;;;;;;;6.53;4.23;;;6.70;99.90;;;;;;5058083;28;20471;-74
2022/05/03 03:22:24;;;;;;;5.20;4.30;;;6.60;99.90;;;;;;5059434;28;20574;-73
2022/05/03 03:25:16;;;;;;;4.50;3.77;;;6.70;99.90;;;;;;5057675;28;20534;-73
2022/05/03 03:28:09;;;;;;;4.73;4.33;;;6.70;99.90;;;;;;5058731;28;20564;-74
2022/05/03 03:30:59;;;;;;;4.57;4.00;;;6.60;99.90;;;;;;5063167;28;20482;-74
2022/05/03 03:33:49;;;;;;;5.13;3.90;;;6.60;99.90;;;;;;5054514;28;20833;-75
2022/05/03 03:36:38;;;;;;;5.50;4.70;;;6.60;99.90;;;;;;5058335;28;20473;-75
2022/05/03 03:39:26;;;;;;;5.37;4.87;;;6.60;99.90;;;;;;5057501;28;20556;-74
2022/05/03 03:42:14;;;;;;;5.27;4.40;;;6.60;99.90;;;;;;5058247;28;20523;-75
2022/05/03 03:45:07;;;;;;;4.57;4.17;;;6.60;99.90;;;;;;5055967;28;20477;-73
2022/05/03 03:47:56;;;;;;;5.83;4.53;;;6.60;99.90;;;;;;5060036;28;20490;-75
2022/05/03 03:50:48;;;;;;;5.80;5.23;;;6.60;99.90;;;;;;5058137;28;20455;-74
2022/05/03 03:53:37;;;;;;;5.67;5.10;;;6.60;99.90;;;;;;5058884;28;20469;-75
2022/05/03 03:56:25;;;;;;;5.60;5.10;;;6.60;99.90;;;;;;5056252;28;20628;-75
2022/05/03 03:59:15;;;;;;;5.97;5.20;;;6.60;99.90;;;;;;5055120;28;20568;-76
2022/05/03 04:02:05;;;;;;;5.73;4.43;;;6.60;99.90;;;;;;5059353;28;20562;-75
2022/05/03 04:04:55;;;;;;;6.23;5.40;;;6.60;99.90;;;;;;5057607;28;20865;-75
2022/05/03 04:07:43;;;;;;;6.90;6.00;;;6.60;99.90;;;;;;5053528;28;21015;-74
2022/05/03 04:10:31;;;;;;;7.30;5.53;;;6.60;99.90;;;;;;5056845;28;20891;-74
2022/05/03 04:13:19;;;;;;;6.50;5.43;;;6.60;99.90;;;;;;5053341;28;20441;-75
2022/05/03 04:16:09;;;;;;;6.13;5.53;;;6.60;99.90;;;;;;5060581;28;20453;-75
2022/05/03 04:18:58;;;;;;;6.43;5.83;;;6.60;99.90;;;;;;5057688;28;20557;-74
2022/05/03 04:21:47;;;;;;;5.57;4.97;;;6.70;99.90;;;;;;5056143;28;20454;-75
2022/05/03 04:24:35;;;;;;;10.37;6.13;;;6.70;99.90;;;;;;5056102;28;20729;-73
2022/05/03 04:27:24;;;;;;;6.30;5.70;;;6.80;99.90;;;;;;5057381;28;20958;-74
2022/05/03 04:30:13;;;;;;;6.40;5.80;;;6.90;99.90;;;;;;5057605;28;20454;-75
2022/05/03 04:33:01;;;;;;;7.00;6.30;;;6.90;99.90;;;;;;5056706;28;20540;-73
2022/05/03 04:35:51;;;;;;;7.10;6.40;;;7.00;99.90;;;;;;5048519;28;20627;-74
2022/05/03 04:38:39;;;;;;;6.73;6.07;;;7.00;99.90;;;;;;5052195;28;20569;-74
2022/05/03 04:41:28;;;;;;;7.53;6.83;;;7.10;99.90;;;;;;5040105;28;20564;-74
2022/05/03 04:44:16;;;;;;;7.80;6.53;;;7.20;99.90;;;;;;5052605;28;21017;-77
2022/05/03 04:47:04;;;;;;;8.43;6.67;;;7.20;99.90;;;;;;5053509;28;20574;-73
2022/05/03 04:49:53;;;;;;;10.13;7.30;;;7.30;99.90;;;;;;5052691;28;20458;-74
2022/05/03 04:52:43;;;;;;;8.30;6.60;;;7.30;99.90;;;;;;5051190;28;20446;-74
2022/05/03 04:55:31;;;;;;;9.97;8.00;;;7.40;99.90;;;;;;5054084;28;20473;-75
2022/05/03 04:58:19;;;;;;;8.60;7.43;;;7.40;99.90;;;;;;5049720;28;20496;-74
2022/05/03 05:01:07;;;;;;;9.07;8.17;;;7.50;99.90;;;;;;5051978;28;21100;-74
2022/05/03 05:03:56;;;;;;;8.43;7.47;;;7.50;99.90;;;;;;5049894;28;20981;-75
2022/05/03 05:06:44;;;;;;;9.63;8.03;;;7.60;99.90;;;;;;5053665;28;20489;-74
2022/05/03 05:10:23;;;;;;;10.60;9.50;;;7.70;99.90;;;;;;5057210;28;20565;-74
2022/05/03 05:12:49;;;;;;;11.20;8.93;;;7.70;99.90;;;;;;5047420;28;20465;-74
2022/05/03 05:15:37;;;;;;;11.77;9.97;;;7.80;99.90;;;;;;5051516;28;20571;-74
2022/05/03 05:18:25;;;;;;;12.73;10.23;;;7.80;99.90;;;;;;5050029;28;20993;-74
2022/05/03 05:21:13;;;;;;;11.07;9.77;;;7.90;99.90;;;;;;5042771;28;20489;-73
2022/05/03 05:24:01;;;;;;;9.73;8.80;;;7.90;99.90;;;;;;5049974;28;20510;-73
2022/05/03 05:26:51;;;;;;;10.43;9.37;;;8.00;99.90;;;;;;5051808;28;20455;-73
2022/05/03 05:29:39;;;;;;;10.33;9.30;;;8.00;99.90;;;;;;5053261;28;21136;-73
2022/05/03 05:32:27;;;;;;;11.63;9.30;;;8.10;99.90;;;;;;5054903;28;20899;-74
2022/05/03 05:35:16;;;;;;;11.53;9.40;;;8.20;99.90;;;;;;5047640;28;20562;-74
2022/05/03 05:38:06;;;;;;;13.93;10.37;;;8.20;99.90;;;;;;5054577;28;20624;-75
2022/05/03 05:40:55;;;;;;;10.73;9.63;;;8.30;99.90;;;;;;5052968;28;20607;-74
2022/05/03 05:43:44;;;;;;;11.67;10.47;;;8.30;99.90;;;;;;5048567;28;20572;-74
2022/05/03 05:46:32;;;;;;;11.33;10.23;;;8.40;99.90;;;;;;5052819;28;20500;-74
2022/05/03 05:49:21;;;;;;;11.90;10.70;;;8.50;99.90;;;;;;5042763;28;20477;-74
2022/05/03 05:55:15;;;;;;;12.20;11.00;;;8.50;99.90;;;;;;5060990;28;20470;-74
2022/05/03 05:58:04;;;;;;;11.70;10.50;;;8.60;99.90;;;;;;5047469;28;20536;-73
2022/05/03 06:00:53;;;;;;;13.20;9.73;;;8.70;99.90;;;;;;5061756;28;20549;-73
2022/05/03 06:03:43;;;;;;;11.50;10.30;;;8.70;99.90;;;;;;5059551;28;20500;-73
2022/05/03 06:06:32;;;;;;;13.20;11.30;;;8.70;99.90;;;;;;5060142;28;20930;-74
2022/05/03 06:09:21;;;;;;;13.50;10.53;;;8.80;99.90;;;;;;5062507;28;20489;-74
2022/05/03 06:12:10;;;;;;;13.03;11.57;;;8.80;99.90;;;;;;5061556;28;21052;-73
2022/05/03 06:14:58;;;;;;;15.13;11.60;;;8.90;99.90;;;;;;5062705;28;20572;-74
2022/05/03 06:17:47;;;;;;;12.80;11.13;;;9.00;99.90;;;;;;5062153;28;20539;-74
2022/05/03 06:20:36;;;;;;;13.23;11.83;;;9.00;99.90;;;;;;5061470;28;20586;-74
2022/05/03 06:23:28;;;;;;;15.90;12.40;;;9.00;99.90;;;;;;5058713;28;20920;-74
2022/05/03 06:26:16;;;;;;;14.07;12.57;;;9.00;99.90;;;;;;5062001;28;20464;-73
2022/05/03 06:29:09;;;;;;;17.30;13.50;;;9.10;99.90;;;;;;5061506;28;20466;-74
2022/05/03 06:31:59;;;;;;;14.47;12.47;;;9.10;99.90;;;;;;5061575;28;20545;-74
2022/05/03 06:34:49;;;;;;;17.27;12.87;;;9.10;99.90;;;;;;5058034;28;20519;-73
2022/05/03 06:37:37;;;;;;;15.07;13.20;;;9.20;99.90;;;;;;5060096;28;20482;-73
2022/05/03 06:40:25;;;;;;;13.97;12.47;;;9.20;99.90;;;;;;5062876;28;20454;-73
2022/05/03 06:43:14;;;;;;;19.87;13.53;;;9.20;99.90;;;;;;5060990;28;20460;-73
2022/05/03 06:46:02;;;;;;;15.20;13.67;;;9.30;99.90;;;;;;5060492;28;20470;-72
2022/05/03 06:48:50;;;;;;;15.50;13.90;;;9.40;99.90;;;;;;5062878;28;20859;-74
2022/05/03 06:51:39;;;;;;;20.87;14.17;;;9.30;99.90;;;;;;5060421;28;20674;-74
2022/05/03 06:54:28;;;;;;;19.60;14.00;;;9.40;99.90;;;;;;5060236;28;20605;-73
2022/05/03 06:57:16;;;;;;;18.83;13.90;;;9.40;99.90;;;;;;5062887;28;20445;-72
2022/05/03 07:00:05;;;;;;;15.30;12.23;;;9.40;99.90;;;;;;5060281;28;20826;-73
2022/05/03 07:02:53;;;;;;;16.23;14.53;;;9.40;99.90;;;;;;5060243;28;20458;-73
2022/05/03 07:05:42;;;;;;;15.30;13.30;;;9.50;99.90;;;;;;5061933;28;20571;-73
2022/05/03 07:08:31;;;;;;;13.93;12.43;;;9.50;99.90;;;;;;5047367;28;20481;-73
2022/05/03 07:11:20;;;;;;;16.03;13.23;;;9.50;99.90;;;;;;5061526;28;20523;-73
2022/05/03 07:14:08;;;;;;;15.20;13.17;;;9.50;99.90;;;;;;5058830;28;20532;-73
2022/05/03 07:16:56;;;;;;;17.53;13.53;;;9.60;99.90;;;;;;5060590;28;20490;-73
2022/05/03 07:22:50;;;;;;;16.37;13.70;;;9.70;99.90;;;;;;5062234;28;20707;-75
2022/05/03 07:25:40;;;;;;;15.00;13.03;;;9.70;99.90;;;;;;5061057;28;21353;-73
2022/05/03 07:28:28;;;;;;;15.97;12.90;;;9.70;99.90;;;;;;5060678;28;20482;-73
2022/05/03 07:31:17;;;;;;;19.30;13.90;;;9.80;99.90;;;;;;5061315;28;20528;-73
2022/05/03 07:34:05;;;;;;;16.50;13.67;;;9.80;99.90;;;;;;5059545;28;21040;-73
2022/05/03 07:36:53;;;;;;;17.83;13.40;;;9.80;99.90;;;;;;5060739;28;21110;-73
2022/05/03 07:39:41;;;;;;;15.30;12.73;;;9.90;99.90;;;;;;5060549;28;20523;-73
2022/05/03 07:42:31;;;;;;;19.03;14.00;;;9.90;99.90;;;;;;5061086;28;20682;-73
2022/05/03 07:45:19;;;;;;;15.20;12.70;;;9.90;99.90;;;;;;5059880;28;21179;-71
2022/05/03 07:48:07;;;;;;;15.30;13.70;;;9.90;99.90;;;;;;5061777;28;20602;-71
2022/05/03 07:50:55;;;;;;;18.10;13.50;;;9.90;99.90;;;;;;5060493;28;20450;-73
2022/05/03 07:53:43;;;;;;;15.10;13.27;;;10.00;99.90;;;;;;5060463;28;20474;-73
2022/05/03 07:56:31;;;;;;;16.83;13.10;;;10.00;99.90;;;;;;5060210;28;20457;-73
2022/05/03 07:59:23;;;;;;;17.70;13.90;;;10.10;99.90;;;;;;5056844;28;21070;-71
2022/05/03 08:02:11;;;;;;;15.83;14.13;;;10.10;99.90;;;;;;5059971;28;20876;-72
2022/05/03 08:05:00;;;;;;;15.80;14.10;;;10.20;99.90;;;;;;5060520;28;20536;-70
2022/05/03 08:07:48;;;;;;;15.97;14.00;;;10.20;99.90;;;;;;5058912;28;20474;-70
2022/05/03 08:10:36;;;;;;;17.53;13.27;;;10.20;99.90;;;;;;5060724;28;20534;-71
2022/05/03 08:13:24;;;;;;;16.53;14.57;;;10.20;99.90;;;;;;5061008;28;20475;-70
2022/05/03 08:16:21;;;;;;;14.80;13.30;;;10.20;99.90;;;;;;5059574;28;20441;-72
2022/05/03 08:19:10;;;;;;;20.10;14.13;;;10.20;99.90;;;;;;5058598;28;20466;-70
2022/05/03 08:21:58;;;;;;;15.57;13.93;;;10.20;99.90;;;;;;5062095;28;20465;-72
2022/05/03 08:24:46;;;;;;;18.70;14.97;;;10.30;99.90;;;;;;5058721;28;20494;-70
2022/05/03 08:27:36;;;;;;;16.70;14.13;;;10.30;99.90;;;;;;5061842;28;20837;-71
2022/05/03 08:30:24;;;;;;;20.53;15.13;;;10.30;99.90;;;;;;5062302;28;20504;-73
2022/05/03 08:33:14;;;;;;;16.97;15.10;;;10.30;99.90;;;;;;5060566;28;20541;-73
2022/05/03 08:36:03;;;;;;;22.13;15.47;;;10.30;99.90;;;;;;5059535;28;20533;-71
2022/05/03 08:42:06;;;;;;;18.03;15.10;;;10.30;99.90;;;;;;5060420;28;20470;-73
2022/05/03 08:44:55;;;;;;;16.47;14.43;;;10.30;99.90;;;;;;5059371;28;20466;-73
2022/05/03 08:47:44;;;;;;;15.63;12.70;;;10.40;99.90;;;;;;5060466;28;20490;-73
2022/05/03 08:50:35;;;;;;;16.77;14.00;;;10.40;99.90;;;;;;5058397;28;20511;-70
2022/05/03 08:53:23;;;;;;;14.70;13.10;;;10.40;99.90;;;;;;5058682;28;20584;-73
2022/05/03 08:56:12;;;;;;;14.50;11.87;;;10.50;99.90;;;;;;5060352;28;20985;-71
2022/05/03 08:59:01;;;;;;;13.70;11.50;;;10.50;99.90;;;;;;5058637;28;20853;-74
2022/05/03 09:01:49;;;;;;;13.10;9.80;;;10.60;99.90;;;;;;5058512;28;20593;-72
2022/05/03 09:04:38;;;;;;;9.33;8.33;;;10.70;99.90;;;;;;5058502;28;20768;-71
2022/05/03 09:07:28;;;;;;;9.03;7.80;;;10.70;99.90;;;;;;5059645;28;20458;-73
2022/05/03 09:10:18;;;;;;;10.27;7.07;;;10.80;99.90;;;;;;5059122;28;20873;-72
2022/05/03 09:13:18;;;;;;;10.37;6.70;;;10.90;99.90;;;;;;5060749;28;20477;-73
2022/05/03 09:16:11;;;;;;;10.40;7.33;;;11.00;99.90;;;;;;5059320;28;20484;-72
2022/05/03 09:18:59;;;;;;;10.83;7.87;;;11.10;99.90;;;;;;5058969;28;20486;-72
2022/05/03 09:24:58;;;;;;;13.23;7.90;;;11.20;99.90;;;;;;5060714;28;20774;-73
2022/05/03 09:27:47;;;;;;;10.90;8.27;;;11.40;99.90;;;;;;5064119;28;20469;-74
2022/05/03 09:30:35;;;;;;;9.93;7.90;;;11.50;99.90;;;;;;5053367;28;20547;-73
2022/05/03 09:33:24;;;;;;;12.77;8.43;;;11.60;99.90;;;;;;5061973;28;20605;-75
2022/05/03 09:36:13;;;;;;;10.87;8.20;;;11.70;99.90;;;;;;5060309;28;20518;-73
2022/05/03 09:39:24;;;;;;;8.20;7.30;;;11.80;99.90;;;;;;5062652;28;20472;-73
2022/05/03 09:42:15;;;;;;;10.27;7.00;;;11.80;99.90;;;;;;5063427;28;20509;-73
2022/05/03 09:45:08;;;;;;;9.53;7.33;;;11.90;99.90;;;;;;5062911;28;20615;-74
2022/05/03 09:47:59;;;;;;;9.23;6.00;;;12.00;99.90;;;;;;5062320;28;20478;-73
2022/05/03 09:50:48;;;;;;;9.23;5.47;;;12.00;99.90;;;;;;5062503;28;20610;-73
2022/05/03 09:53:36;;;;;;;6.20;4.57;;;12.10;99.90;;;;;;5061052;28;20466;-73
2022/05/03 09:56:28;;;;;;;8.23;5.80;;;12.10;99.90;;;;;;5062411;28;20467;-73
2022/05/03 09:59:18;;;;;;;6.70;5.13;;;12.20;99.90;;;;;;5061195;28;20458;-73
2022/05/03 10:02:08;;;;;;;4.77;4.27;;;12.20;99.90;;;;;;5062502;28;20481;-72
2022/05/03 10:04:58;;;;;;;7.00;4.10;;;12.20;99.90;;;;;;5061498;28;20592;-73
2022/05/03 10:07:47;;;;;;;5.43;4.47;;;12.30;99.90;;;;;;5060624;28;20493;-75
2022/05/03 10:10:35;;;;;;;8.20;4.23;;;12.30;99.90;;;;;;5059757;28;20469;-74
2022/05/03 10:13:23;;;;;;;5.33;4.20;;;12.50;99.90;;;;;;5061893;28;20523;-73
2022/05/03 10:22:30;;;;;;;5.20;4.13;;;12.60;99.90;;;;;;5060738;28;20536;-72
2022/05/03 10:25:28;;;;;;;6.30;3.70;;;12.70;99.90;;;;;;5060459;28;20608;-73
2022/05/03 10:28:17;;;;;;;6.33;3.77;;;12.80;99.90;;;;;;5062609;28;20845;-73
2022/05/03 10:31:11;;;;;;;4.47;3.27;;;12.90;99.90;;;;;;5062147;28;20453;-73
2022/05/03 10:34:03;;;;;;;5.80;3.03;;;12.90;99.90;;;;;;5058361;28;20462;-74
2022/05/03 10:36:51;;;;;;;4.33;3.60;;;13.00;99.90;;;;;;5060266;28;20889;-75
2022/05/03 10:39:51;;;;;;;3.87;2.80;;;13.00;99.90;;;;;;5058692;28;20479;-77
2022/05/03 10:42:41;;;;;;;4.87;3.37;;;13.10;99.90;;;;;;5059537;28;20450;-73
2022/05/03 10:45:29;;;;;;;4.63;3.30;;;13.20;99.90;;;;;;5055891;28;20586;-75
2022/05/03 10:48:27;;;;;;;3.47;3.17;;;13.20;99.90;;;;;;5062339;28;21136;-73
2022/05/03 10:51:17;;;;;;;7.10;3.30;;;13.20;99.90;;;;;;5062565;28;21147;-74
2022/05/03 10:54:06;;;;;;;4.37;2.60;;;13.20;99.90;;;;;;5062041;28;20474;-74
2022/05/03 10:57:07;;;;;;;5.17;2.93;;;13.40;99.90;;;;;;5061387;28;20450;-73
2022/05/03 10:59:55;;;;;;;6.53;3.20;;;13.60;99.90;;;;;;5060369;28;20470;-73
2022/05/03 11:03:17;;;;;;;4.30;2.80;;;13.70;99.90;;;;;;5063302;28;20531;-74
2022/05/03 11:06:41;;;;;;;3.80;2.80;;;13.70;99.90;;;;;;5056738;28;20492;-72
2022/05/03 11:09:30;;;;;;;3.20;2.40;;;13.90;99.90;;;;;;5061710;28;21013;-72
2022/05/03 11:12:18;;;;;;;3.03;2.60;;;13.90;99.90;;;;;;5059188;28;20568;-73
2022/05/03 11:15:07;;;;;;;6.43;2.70;;;13.90;99.90;;;;;;5056132;28;20539;-74
2022/05/03 11:17:56;;;;;;;7.50;2.73;;;14.00;99.90;;;;;;5059353;28;20598;-73
2022/05/03 11:20:44;;;;;;;3.27;2.50;;;14.00;99.90;;;;;;5056019;28;20442;-73
2022/05/03 11:23:34;;;;;;;5.30;2.87;;;14.00;99.90;;;;;;5056014;28;20604;-73
2022/05/03 11:26:25;;;;;;;4.10;2.70;;;13.90;99.90;;;;;;5058381;28;20477;-74
2022/05/03 11:29:14;;;;;;;5.23;2.70;;;14.00;99.90;;;;;;5053478;28;20520;-73
2022/05/03 11:32:06;;;;;;;4.63;2.37;;;14.20;99.90;;;;;;5061161;28;20537;-75
2022/05/03 11:35:10;;;;;;;5.33;2.53;;;14.30;99.90;;;;;;5056661;28;20466;-73
2022/05/03 11:37:59;;;;;;;5.57;2.73;;;14.40;99.90;;;;;;5052992;28;20559;-74
2022/05/03 11:40:50;;;;;;;7.03;2.70;;;14.30;99.90;;;;;;5051821;28;20490;-73
2022/05/03 11:43:38;;;;;;;6.40;2.97;;;14.10;99.90;;;;;;5052702;28;20546;-73
2022/05/03 11:46:26;;;;;;;4.93;2.50;;;14.10;99.90;;;;;;5055129;28;21020;-73
2022/05/03 11:49:15;;;;;;;5.27;2.70;;;14.00;99.90;;;;;;5054753;28;20515;-73
2022/05/03 11:58:17;;;;;;;8.10;2.90;;;14.30;99.90;;;;;;5057540;28;20546;-73
2022/05/03 12:01:13;;;;;;;5.90;3.00;;;14.30;99.90;;;;;;5053632;28;20963;-74
2022/05/03 12:04:02;;;;;;;7.27;3.23;;;14.20;99.90;;;;;;5051665;28;20481;-73
2022/05/03 12:06:50;;;;;;;4.47;3.07;;;14.30;99.90;;;;;;5056054;28;20534;-73
2022/05/03 12:09:39;;;;;;;6.50;2.70;;;14.30;99.90;;;;;;5057549;28;20489;-73
2022/05/03 12:15:46;;;;;;;4.90;2.47;;;14.20;99.90;;;;;;5014917;28;20563;-73
2022/05/03 12:18:37;;;;;;;4.60;2.30;;;14.30;99.90;;;;;;5057185;28;20564;-74
2022/05/03 12:21:29;;;;;;;4.73;2.50;;;14.50;99.90;;;;;;5054847;28;20464;-73
2022/05/03 12:24:18;;;;;;;4.50;2.00;;;14.60;99.90;;;;;;5055500;28;20538;-75
2022/05/03 12:27:13;;;;;;;3.17;2.40;;;14.80;99.90;;;;;;5055595;28;21193;-77
2022/05/03 12:30:10;;;;;;;5.90;2.60;;;15.00;99.90;;;;;;5056564;28;20510;-73
2022/05/03 12:33:02;;;;;;;5.20;2.67;;;15.00;99.90;;;;;;5049345;28;20600;-73
2022/05/03 12:35:51;;;;;;;7.40;2.83;;;15.10;99.90;;;;;;5048163;28;21187;-74
2022/05/03 12:38:49;;;;;;;6.07;3.10;;;15.20;99.90;;;;;;5044807;28;20573;-73
2022/05/03 12:41:39;;;;;;;5.00;2.80;;;15.30;99.90;;;;;;5054297;28;20623;-75
2022/05/03 12:44:28;;;;;;;3.87;2.50;;;15.40;99.90;;;;;;5046721;28;20816;-73
2022/05/03 12:47:16;;;;;;;4.97;2.50;;;15.30;99.90;;;;;;5053640;28;20982;-73
2022/05/03 12:50:06;;;;;;;3.50;2.67;;;15.10;99.90;;;;;;5050568;28;20465;-72
2022/05/03 12:52:54;;;;;;;4.90;2.57;;;15.20;99.90;;;;;;5055758;28;20534;-74
2022/05/03 12:55:43;;;;;;;4.53;2.70;;;15.30;99.90;;;;;;5045988;28;20630;-77
2022/05/03 12:58:31;;;;;;;4.60;2.83;;;15.20;99.90;;;;;;5059717;28;20601;-73
2022/05/03 13:01:19;;;;;;;6.43;2.77;;;15.40;99.90;;;;;;5052410;28;20466;-73
2022/05/03 13:04:08;;;;;;;5.87;3.07;;;15.70;99.90;;;;;;5051601;28;20605;-73
2022/05/03 13:06:59;;;;;;;2.93;2.20;;;15.90;99.90;;;;;;5057672;28;20541;-72
2022/05/03 13:09:47;;;;;;;5.10;2.33;;;16.00;99.90;;;;;;5054515;28;20511;-72
2022/05/03 13:12:36;;;;;;;4.27;2.70;;;16.10;99.90;;;;;;5059828;28;20466;-72
2022/05/03 13:15:24;;;;;;;6.30;2.50;;;16.00;99.90;;;;;;5051106;28;21336;-72
2022/05/03 13:18:12;;;;;;;5.00;2.60;;;16.00;99.90;;;;;;5060710;28;20472;-72
2022/05/03 13:21:01;;;;;;;5.30;2.53;;;16.20;99.90;;;;;;5059768;28;20456;-72
2022/05/03 13:23:50;;;;;;;4.40;2.73;;;16.30;99.90;;;;;;5057892;28;20486;-72
2022/05/03 13:26:40;;;;;;;7.13;2.83;;;16.40;99.90;;;;;;5060796;28;20473;-73
2022/05/03 13:29:29;;;;;;;4.90;2.40;;;16.40;99.90;;;;;;5056435;28;20959;-73
2022/05/03 13:32:17;;;;;;;3.77;2.50;;;16.50;99.90;;;;;;5052107;28;20528;-72
2022/05/03 13:35:07;;;;;;;5.57;2.67;;;16.40;99.90;;;;;;5056144;28;21056;-72
2022/05/03 13:41:02;;;;;;;4.87;2.37;;;16.50;99.90;;;;;;5024380;28;20590;-74
2022/05/03 13:43:50;;;;;;;5.60;2.33;;;16.70;99.90;;;;;;5060893;28;20563;-73
2022/05/03 13:46:38;;;;;;;4.80;2.60;;;16.70;99.90;;;;;;5057412;28;20461;-73
2022/05/03 13:49:27;;;;;;;4.57;2.30;;;16.90;99.90;;;;;;5053644;28;20626;-73
2022/05/03 13:52:15;;;;;;;6.83;2.60;;;16.80;99.90;;;;;;5056880;28;20457;-73
2022/05/03 13:55:03;;;;;;;4.50;2.10;;;16.80;99.90;;;;;;5059646;28;20513;-72
2022/05/03 13:57:55;;;;;;;4.77;2.90;;;16.90;99.90;;;;;;5054190;28;20470;-73
2022/05/03 14:00:43;;;;;;;6.37;2.47;;;17.10;99.90;;;;;;5059182;28;20461;-73
2022/05/03 14:03:32;;;;;;;5.87;2.70;;;17.40;99.90;;;;;;5058320;28;20493;-73
2022/05/03 14:06:20;;;;;;;5.20;2.67;;;17.60;99.90;;;;;;5057207;28;20588;-73
2022/05/03 14:09:08;;;;;;;4.63;2.67;;;17.70;99.90;;;;;;5057922;28;20577;-73
2022/05/03 14:11:58;;;;;;;4.63;2.23;;;17.80;99.90;;;;;;5057635;28;20657;-73
2022/05/03 14:14:47;;;;;;;4.70;2.80;;;17.90;99.90;;;;;;5057620;28;20477;-73
2022/05/03 14:17:35;;;;;;;4.43;2.30;;;18.00;99.90;;;;;;5058233;28;20531;-73
2022/05/03 14:20:23;;;;;;;4.70;2.63;;;18.40;99.90;;;;;;5058752;28;20638;-73
2022/05/03 14:23:12;;;;;;;4.37;2.57;;;18.60;99.90;;;;;;5051613;28;20790;-73
2022/05/03 14:26:00;;;;;;;4.90;2.27;;;18.80;99.90;;;;;;5052541;28;20455;-74
2022/05/03 14:28:49;;;;;;;3.63;2.00;;;19.30;99.90;;;;;;5047570;28;20591;-73
2022/05/03 14:31:43;;;;;;;4.83;2.30;;;19.70;99.90;;;;;;5035873;28;20462;-72
2022/05/03 14:34:34;;;;;;;5.97;3.00;;;20.00;99.90;;;;;;5054676;28;20485;-71
2022/05/03 14:37:22;;;;;;;4.80;2.33;;;20.60;99.90;;;;;;5047989;28;20557;-72
2022/05/03 14:40:12;;;;;;;4.50;2.43;;;21.80;99.90;;;;;;5050789;28;20450;-72
2022/05/03 14:43:01;;;;;;;4.60;2.20;;;22.40;99.90;;;;;;5050115;28;20456;-73
2022/05/03 14:45:50;;;;;;;5.30;2.50;;;22.10;99.90;;;;;;5042289;28;20534;-72
2022/05/03 14:48:39;;;;;;;4.80;2.20;;;21.60;99.90;;;;;;5055694;28;20488;-73
2022/05/03 14:51:28;;;;;;;5.13;2.50;;;21.00;99.90;;;;;;5058053;28;20454;-72
2022/05/03 14:54:16;;;;;;;5.90;2.87;;;20.70;99.90;;;;;;5057039;28;20480;-72
2022/05/03 15:03:17;;;;;;;5.00;3.13;;;20.10;99.90;;;;;;5048394;28;21043;-72
2022/05/03 15:06:08;;;;;;;5.50;2.80;;;20.00;99.90;;;;;;5048232;28;20486;-70
2022/05/03 15:08:57;;;;;;;5.63;2.90;;;19.90;99.90;;;;;;5054372;28;21297;-69
2022/05/03 15:11:45;;;;;;;4.63;2.43;;;19.50;99.90;;;;;;5057356;28;20459;-70
2022/05/03 15:14:33;;;;;;;6.70;3.13;;;19.20;99.90;;;;;;5053540;28;20975;-70
2022/05/03 15:17:21;;;;;;;3.30;2.63;;;19.20;99.90;;;;;;5050873;28;20473;-69
2022/05/03 15:20:11;;;;;;;6.47;2.80;;;19.10;99.90;;;;;;5054744;28;20631;-69
2022/05/03 15:26:08;;;;;;;4.73;2.50;;;18.90;99.90;;;;;;5050155;28;20597;-69
2022/05/03 15:28:56;;;;;;;8.30;3.40;;;18.90;99.90;;;;;;5049061;28;20525;-72
2022/05/03 15:31:45;;;;;;;6.60;2.60;;;18.50;99.90;;;;;;5055778;28;20601;-70
2022/05/03 15:34:36;;;;;;;4.73;2.97;;;18.50;99.90;;;;;;5056624;28;20493;-70
2022/05/03 15:37:24;;;;;;;7.33;2.83;;;18.20;99.90;;;;;;5056059;28;20679;-69
2022/05/03 15:40:15;;;;;;;4.80;2.80;;;18.40;99.90;;;;;;5058194;28;20557;-69